sensor_id;sensor_type;location;lat;lon;timestamp;P1;durP1;ratioP1;P2;durP2;ratioP2
57697;SDS011;43531;52.152;6.366;2022-10-31T00:01:26;4.53;;;3.65;;
57697;SDS011;43531;52.152;6.366;2022-10-31T00:02:07;5.63;;;4.10;;
57697;SDS011;43531;52.152;6.366;2022-10-31T00:02:40;7.85;;;5.47;;
57697;SDS011;43531;52.152;6.366;2022-10-31T00:03:15;8.18;;;4.40;;
57697;SDS011;43531;52.152;6.366;2022-10-31T00:03:50;10.52;;;5.10;;
57697;SDS011;43531;52.152;6.366;2022-10-31T00:04:24;9.90;;;5.65;;
57697;SDS011;43531;52.152;6.366;2022-10-31T00:04:57;9.07;;;5.90;;
57697;SDS011;43531;52.152;6.366;2022-10-31T00:05:30;6.70;;;5.03;;
57697;SDS011;43531;52.152;6.366;2022-10-31T00:06:03;6.28;;;5.22;;
57697;SDS011;43531;52.152;6.366;2022-10-31T00:06:36;9.75;;;4.60;;
57697;SDS011;43531;52.152;6.366;2022-10-31T00:07:09;8.27;;;4.45;;
57697;SDS011;43531;52.152;6.366;2022-10-31T00:07:42;9.25;;;4.28;;
57697;SDS011;43531;52.152;6.366;2022-10-31T00:08:15;6.53;;;3.97;;
57697;SDS011;43531;52.152;6.366;2022-10-31T00:08:52;5.18;;;4.47;;
57697;SDS011;43531;52.152;6.366;2022-10-31T00:09:26;12.25;;;4.53;;
57697;SDS011;43531;52.152;6.366;2022-10-31T00:09:59;4.35;;;3.78;;
57697;SDS011;43531;52.152;6.366;2022-10-31T00:10:31;7.72;;;5.13;;
57697;SDS011;43531;52.152;6.366;2022-10-31T00:11:03;4.07;;;3.67;;
57697;SDS011;43531;52.152;6.366;2022-10-31T00:11:35;9.55;;;3.97;;
57697;SDS011;43531;52.152;6.366;2022-10-31T00:12:07;8.98;;;3.85;;
57697;SDS011;43531;52.152;6.366;2022-10-31T00:12:40;7.78;;;4.55;;
57697;SDS011;43531;52.152;6.366;2022-10-31T00:13:12;5.72;;;5.10;;
57697;SDS011;43531;52.152;6.366;2022-10-31T00:13:45;6.20;;;4.47;;
57697;SDS011;43531;52.152;6.366;2022-10-31T00:14:17;7.22;;;4.53;;
57697;SDS011;43531;52.152;6.366;2022-10-31T00:14:50;7.80;;;4.13;;
57697;SDS011;43531;52.152;6.366;2022-10-31T00:15:25;5.95;;;4.32;;
57697;SDS011;43531;52.152;6.366;2022-10-31T00:16:00;7.22;;;4.47;;
57697;SDS011;43531;52.152;6.366;2022-10-31T00:16:36;10.88;;;5.05;;
57697;SDS011;43531;52.152;6.366;2022-10-31T00:17:14;8.93;;;4.28;;
57697;SDS011;43531;52.152;6.366;2022-10-31T00:17:51;5.15;;;4.10;;
57697;SDS011;43531;52.152;6.366;2022-10-31T00:18:25;7.60;;;4.28;;
57697;SDS011;43531;52.152;6.366;2022-10-31T00:18:59;7.32;;;4.10;;
57697;SDS011;43531;52.152;6.366;2022-10-31T00:19:33;7.82;;;4.40;;
57697;SDS011;43531;52.152;6.366;2022-10-31T00:20:07;12.90;;;4.90;;
57697;SDS011;43531;52.152;6.366;2022-10-31T00:20:40;12.43;;;4.22;;
57697;SDS011;43531;52.152;6.366;2022-10-31T00:21:13;5.60;;;3.80;;
57697;SDS011;43531;52.152;6.366;2022-10-31T00:21:46;4.65;;;4.05;;
57697;SDS011;43531;52.152;6.366;2022-10-31T00:22:19;8.68;;;4.13;;
57697;SDS011;43531;52.152;6.366;2022-10-31T00:22:51;8.82;;;4.93;;
57697;SDS011;43531;52.152;6.366;2022-10-31T00:23:24;6.55;;;3.55;;
57697;SDS011;43531;52.152;6.366;2022-10-31T00:23:57;6.53;;;4.13;;
57697;SDS011;43531;52.152;6.366;2022-10-31T00:24:30;6.50;;;4.20;;
57697;SDS011;43531;52.152;6.366;2022-10-31T00:25:02;3.03;;;2.72;;
57697;SDS011;43531;52.152;6.366;2022-10-31T00:25:38;9.45;;;4.40;;
57697;SDS011;43531;52.152;6.366;2022-10-31T00:26:11;7.43;;;3.95;;
57697;SDS011;43531;52.152;6.366;2022-10-31T00:26:44;6.90;;;3.90;;
57697;SDS011;43531;52.152;6.366;2022-10-31T00:27:17;7.18;;;3.80;;
57697;SDS011;43531;52.152;6.366;2022-10-31T00:27:50;6.53;;;4.47;;
57697;SDS011;43531;52.152;6.366;2022-10-31T00:28:24;8.65;;;4.43;;
57697;SDS011;43531;52.152;6.366;2022-10-31T00:29:00;5.43;;;3.88;;
57697;SDS011;43531;52.152;6.366;2022-10-31T00:29:35;7.45;;;3.65;;
57697;SDS011;43531;52.152;6.366;2022-10-31T00:30:09;5.15;;;3.80;;
57697;SDS011;43531;52.152;6.366;2022-10-31T00:30:42;9.38;;;4.70;;
57697;SDS011;43531;52.152;6.366;2022-10-31T00:31:15;8.73;;;4.03;;
57697;SDS011;43531;52.152;6.366;2022-10-31T00:31:53;5.55;;;4.30;;
57697;SDS011;43531;52.152;6.366;2022-10-31T00:32:28;7.47;;;4.47;;
57697;SDS011;43531;52.152;6.366;2022-10-31T00:33:03;7.05;;;4.80;;
57697;SDS011;43531;52.152;6.366;2022-10-31T00:33:38;6.35;;;5.72;;
57697;SDS011;43531;52.152;6.366;2022-10-31T00:34:12;5.68;;;4.55;;
57697;SDS011;43531;52.152;6.366;2022-10-31T00:34:48;5.80;;;3.60;;
57697;SDS011;43531;52.152;6.366;2022-10-31T00:35:22;6.20;;;3.70;;
57697;SDS011;43531;52.152;6.366;2022-10-31T00:35:58;4.70;;;3.78;;
57697;SDS011;43531;52.152;6.366;2022-10-31T00:36:31;4.95;;;4.30;;
57697;SDS011;43531;52.152;6.366;2022-10-31T00:37:04;8.77;;;4.13;;
57697;SDS011;43531;52.152;6.366;2022-10-31T00:37:39;7.00;;;4.60;;
57697;SDS011;43531;52.152;6.366;2022-10-31T00:38:12;5.95;;;4.18;;
57697;SDS011;43531;52.152;6.366;2022-10-31T00:38:45;6.47;;;3.58;;
57697;SDS011;43531;52.152;6.366;2022-10-31T00:39:20;7.28;;;4.40;;
57697;SDS011;43531;52.152;6.366;2022-10-31T00:39:58;5.28;;;3.88;;
57697;SDS011;43531;52.152;6.366;2022-10-31T00:40:31;9.70;;;4.20;;
57697;SDS011;43531;52.152;6.366;2022-10-31T00:41:08;10.02;;;4.20;;
57697;SDS011;43531;52.152;6.366;2022-10-31T00:41:44;5.57;;;3.20;;
57697;SDS011;43531;52.152;6.366;2022-10-31T00:42:17;4.68;;;4.15;;
57697;SDS011;43531;52.152;6.366;2022-10-31T00:42:50;6.05;;;3.72;;
57697;SDS011;43531;52.152;6.366;2022-10-31T00:43:23;4.50;;;4.10;;
57697;SDS011;43531;52.152;6.366;2022-10-31T00:43:56;8.32;;;4.82;;
57697;SDS011;43531;52.152;6.366;2022-10-31T00:44:29;9.82;;;3.50;;
57697;SDS011;43531;52.152;6.366;2022-10-31T00:45:02;6.30;;;4.30;;
57697;SDS011;43531;52.152;6.366;2022-10-31T00:49:50;7.90;;;5.32;;
57697;SDS011;43531;52.152;6.366;2022-10-31T00:50:24;7.55;;;4.68;;
57697;SDS011;43531;52.152;6.366;2022-10-31T00:50:56;8.10;;;4.75;;
57697;SDS011;43531;52.152;6.366;2022-10-31T00:51:28;9.75;;;5.82;;
57697;SDS011;43531;52.152;6.366;2022-10-31T00:52:02;7.07;;;6.30;;
57697;SDS011;43531;52.152;6.366;2022-10-31T00:52:34;8.05;;;5.30;;
57697;SDS011;43531;52.152;6.366;2022-10-31T00:53:07;9.02;;;5.38;;
57697;SDS011;43531;52.152;6.366;2022-10-31T00:53:39;8.85;;;5.35;;
57697;SDS011;43531;52.152;6.366;2022-10-31T00:54:11;6.22;;;4.45;;
57697;SDS011;43531;52.152;6.366;2022-10-31T00:54:44;6.85;;;5.47;;
57697;SDS011;43531;52.152;6.366;2022-10-31T00:55:16;8.20;;;7.03;;
57697;SDS011;43531;52.152;6.366;2022-10-31T00:55:48;10.27;;;6.47;;
57697;SDS011;43531;52.152;6.366;2022-10-31T00:56:20;10.27;;;5.63;;
57697;SDS011;43531;52.152;6.366;2022-10-31T00:56:52;12.55;;;5.38;;
57697;SDS011;43531;52.152;6.366;2022-10-31T00:57:24;14.27;;;5.93;;
57697;SDS011;43531;52.152;6.366;2022-10-31T00:57:57;12.77;;;7.00;;
57697;SDS011;43531;52.152;6.366;2022-10-31T00:58:33;10.45;;;5.47;;
57697;SDS011;43531;52.152;6.366;2022-10-31T00:59:05;11.00;;;7.22;;
57697;SDS011;43531;52.152;6.366;2022-10-31T00:59:37;7.88;;;5.30;;
57697;SDS011;43531;52.152;6.366;2022-10-31T01:00:10;7.93;;;5.80;;
57697;SDS011;43531;52.152;6.366;2022-10-31T01:00:42;6.53;;;4.82;;
57697;SDS011;43531;52.152;6.366;2022-10-31T01:01:20;8.50;;;5.70;;
57697;SDS011;43531;52.152;6.366;2022-10-31T01:01:53;7.30;;;5.45;;
57697;SDS011;43531;52.152;6.366;2022-10-31T01:02:25;7.50;;;5.55;;
57697;SDS011;43531;52.152;6.366;2022-10-31T01:02:58;7.28;;;5.63;;
57697;SDS011;43531;52.152;6.366;2022-10-31T01:03:32;10.27;;;6.40;;
57697;SDS011;43531;52.152;6.366;2022-10-31T01:04:04;10.13;;;5.55;;
57697;SDS011;43531;52.152;6.366;2022-10-31T01:04:36;7.60;;;6.10;;
57697;SDS011;43531;52.152;6.366;2022-10-31T01:05:08;9.05;;;5.88;;
57697;SDS011;43531;52.152;6.366;2022-10-31T01:05:41;6.53;;;4.75;;
57697;SDS011;43531;52.152;6.366;2022-10-31T01:06:13;10.55;;;6.10;;
57697;SDS011;43531;52.152;6.366;2022-10-31T01:06:45;10.23;;;6.30;;
57697;SDS011;43531;52.152;6.366;2022-10-31T01:07:20;11.65;;;6.65;;
57697;SDS011;43531;52.152;6.366;2022-10-31T01:07:52;8.43;;;5.82;;
57697;SDS011;43531;52.152;6.366;2022-10-31T01:08:24;12.20;;;5.43;;
57697;SDS011;43531;52.152;6.366;2022-10-31T01:08:57;8.55;;;5.75;;
57697;SDS011;43531;52.152;6.366;2022-10-31T01:09:30;11.82;;;6.55;;
57697;SDS011;43531;52.152;6.366;2022-10-31T01:10:03;9.02;;;6.78;;
57697;SDS011;43531;52.152;6.366;2022-10-31T01:10:36;5.70;;;5.20;;
57697;SDS011;43531;52.152;6.366;2022-10-31T01:11:15;9.55;;;5.43;;
57697;SDS011;43531;52.152;6.366;2022-10-31T01:11:49;8.52;;;5.25;;
57697;SDS011;43531;52.152;6.366;2022-10-31T01:12:22;8.90;;;5.88;;
57697;SDS011;43531;52.152;6.366;2022-10-31T01:12:54;8.93;;;6.85;;
57697;SDS011;43531;52.152;6.366;2022-10-31T01:13:27;11.82;;;7.30;;
57697;SDS011;43531;52.152;6.366;2022-10-31T01:14:00;10.20;;;7.20;;
57697;SDS011;43531;52.152;6.366;2022-10-31T01:14:35;6.00;;;5.07;;
57697;SDS011;43531;52.152;6.366;2022-10-31T01:15:08;6.20;;;4.78;;
57697;SDS011;43531;52.152;6.366;2022-10-31T01:15:44;8.32;;;5.45;;
57697;SDS011;43531;52.152;6.366;2022-10-31T01:16:17;10.45;;;5.93;;
57697;SDS011;43531;52.152;6.366;2022-10-31T01:16:54;7.88;;;5.43;;
57697;SDS011;43531;52.152;6.366;2022-10-31T01:17:26;8.75;;;5.47;;
57697;SDS011;43531;52.152;6.366;2022-10-31T01:17:58;10.77;;;5.93;;
57697;SDS011;43531;52.152;6.366;2022-10-31T01:18:34;7.78;;;5.63;;
57697;SDS011;43531;52.152;6.366;2022-10-31T01:19:06;5.70;;;5.00;;
57697;SDS011;43531;52.152;6.366;2022-10-31T01:19:38;7.60;;;6.60;;
57697;SDS011;43531;52.152;6.366;2022-10-31T01:20:11;11.55;;;5.70;;
57697;SDS011;43531;52.152;6.366;2022-10-31T01:20:44;19.05;;;6.28;;
57697;SDS011;43531;52.152;6.366;2022-10-31T01:21:18;7.18;;;4.80;;
57697;SDS011;43531;52.152;6.366;2022-10-31T01:21:54;6.88;;;4.88;;
57697;SDS011;43531;52.152;6.366;2022-10-31T01:22:26;5.20;;;4.55;;
57697;SDS011;43531;52.152;6.366;2022-10-31T01:22:58;7.20;;;5.75;;
57697;SDS011;43531;52.152;6.366;2022-10-31T01:23:30;7.78;;;5.32;;
57697;SDS011;43531;52.152;6.366;2022-10-31T01:24:03;7.72;;;5.55;;
57697;SDS011;43531;52.152;6.366;2022-10-31T01:24:36;10.80;;;5.80;;
57697;SDS011;43531;52.152;6.366;2022-10-31T01:25:08;11.15;;;5.80;;
57697;SDS011;43531;52.152;6.366;2022-10-31T01:25:40;9.57;;;5.53;;
57697;SDS011;43531;52.152;6.366;2022-10-31T01:26:14;8.73;;;5.72;;
57697;SDS011;43531;52.152;6.366;2022-10-31T01:26:49;10.98;;;5.30;;
57697;SDS011;43531;52.152;6.366;2022-10-31T01:27:21;9.32;;;6.45;;
57697;SDS011;43531;52.152;6.366;2022-10-31T01:27:53;10.48;;;5.47;;
57697;SDS011;43531;52.152;6.366;2022-10-31T01:28:25;18.55;;;5.38;;
57697;SDS011;43531;52.152;6.366;2022-10-31T01:29:00;7.03;;;5.15;;
57697;SDS011;43531;52.152;6.366;2022-10-31T01:29:33;15.40;;;5.78;;
57697;SDS011;43531;52.152;6.366;2022-10-31T01:30:05;5.93;;;5.22;;
57697;SDS011;43531;52.152;6.366;2022-10-31T01:30:38;11.32;;;5.47;;
57697;SDS011;43531;52.152;6.366;2022-10-31T01:31:10;13.65;;;5.32;;
57697;SDS011;43531;52.152;6.366;2022-10-31T01:31:42;5.47;;;4.93;;
57697;SDS011;43531;52.152;6.366;2022-10-31T01:32:14;6.03;;;5.30;;
57697;SDS011;43531;52.152;6.366;2022-10-31T01:32:49;7.53;;;5.22;;
57697;SDS011;43531;52.152;6.366;2022-10-31T01:33:21;6.13;;;4.95;;
57697;SDS011;43531;52.152;6.366;2022-10-31T01:33:53;10.40;;;6.50;;
57697;SDS011;43531;52.152;6.366;2022-10-31T01:34:26;10.57;;;5.03;;
57697;SDS011;43531;52.152;6.366;2022-10-31T01:34:58;9.25;;;5.05;;
57697;SDS011;43531;52.152;6.366;2022-10-31T01:35:31;6.93;;;5.75;;
57697;SDS011;43531;52.152;6.366;2022-10-31T01:36:54;13.10;;;5.00;;
57697;SDS011;43531;52.152;6.366;2022-10-31T01:37:26;8.88;;;4.78;;
57697;SDS011;43531;52.152;6.366;2022-10-31T01:38:01;6.20;;;5.05;;
57697;SDS011;43531;52.152;6.366;2022-10-31T01:38:33;8.23;;;5.80;;
57697;SDS011;43531;52.152;6.366;2022-10-31T01:39:14;8.50;;;5.65;;
57697;SDS011;43531;52.152;6.366;2022-10-31T01:39:47;12.27;;;6.88;;
57697;SDS011;43531;52.152;6.366;2022-10-31T01:40:20;6.55;;;5.80;;
57697;SDS011;43531;52.152;6.366;2022-10-31T01:40:52;10.63;;;6.03;;
57697;SDS011;43531;52.152;6.366;2022-10-31T01:41:25;9.10;;;5.57;;
57697;SDS011;43531;52.152;6.366;2022-10-31T01:41:59;8.43;;;5.45;;
57697;SDS011;43531;52.152;6.366;2022-10-31T01:42:32;10.13;;;6.18;;
57697;SDS011;43531;52.152;6.366;2022-10-31T01:43:04;9.45;;;6.28;;
57697;SDS011;43531;52.152;6.366;2022-10-31T01:44:52;6.82;;;5.07;;
57697;SDS011;43531;52.152;6.366;2022-10-31T01:45:26;11.18;;;4.88;;
57697;SDS011;43531;52.152;6.366;2022-10-31T01:45:58;6.97;;;5.32;;
57697;SDS011;43531;52.152;6.366;2022-10-31T01:46:34;21.35;;;4.40;;
57697;SDS011;43531;52.152;6.366;2022-10-31T01:47:15;5.40;;;4.13;;
57697;SDS011;43531;52.152;6.366;2022-10-31T01:52:19;4.03;;;3.63;;
57697;SDS011;43531;52.152;6.366;2022-10-31T01:52:54;19.23;;;4.13;;
57697;SDS011;43531;52.152;6.366;2022-10-31T01:53:26;12.20;;;4.80;;
57697;SDS011;43531;52.152;6.366;2022-10-31T01:54:00;9.80;;;3.83;;
57697;SDS011;43531;52.152;6.366;2022-10-31T01:54:37;8.77;;;3.97;;
57697;SDS011;43531;52.152;6.366;2022-10-31T01:55:13;7.10;;;4.05;;
57697;SDS011;43531;52.152;6.366;2022-10-31T01:56:02;6.85;;;3.40;;
57697;SDS011;43531;52.152;6.366;2022-10-31T01:56:34;3.97;;;3.28;;
57697;SDS011;43531;52.152;6.366;2022-10-31T01:57:10;5.90;;;3.40;;
57697;SDS011;43531;52.152;6.366;2022-10-31T01:57:45;5.20;;;3.83;;
57697;SDS011;43531;52.152;6.366;2022-10-31T02:02:17;4.45;;;3.88;;
57697;SDS011;43531;52.152;6.366;2022-10-31T02:02:49;6.00;;;3.30;;
57697;SDS011;43531;52.152;6.366;2022-10-31T02:03:22;5.07;;;4.57;;
57697;SDS011;43531;52.152;6.366;2022-10-31T02:03:54;7.03;;;6.10;;
57697;SDS011;43531;52.152;6.366;2022-10-31T02:04:28;12.60;;;5.50;;
57697;SDS011;43531;52.152;6.366;2022-10-31T02:05:02;8.70;;;5.53;;
57697;SDS011;43531;52.152;6.366;2022-10-31T02:05:37;9.57;;;6.68;;
57697;SDS011;43531;52.152;6.366;2022-10-31T02:06:10;9.48;;;6.88;;
57697;SDS011;43531;52.152;6.366;2022-10-31T02:07:02;9.07;;;6.57;;
57697;SDS011;43531;52.152;6.366;2022-10-31T02:07:38;6.15;;;5.55;;
57697;SDS011;43531;52.152;6.366;2022-10-31T02:08:54;9.88;;;5.85;;
57697;SDS011;43531;52.152;6.366;2022-10-31T02:09:26;14.52;;;6.00;;
57697;SDS011;43531;52.152;6.366;2022-10-31T02:10:00;9.00;;;6.55;;
57697;SDS011;43531;52.152;6.366;2022-10-31T02:10:34;7.68;;;5.78;;
57697;SDS011;43531;52.152;6.366;2022-10-31T02:11:08;11.13;;;6.75;;
57697;SDS011;43531;52.152;6.366;2022-10-31T02:11:41;12.63;;;7.50;;
57697;SDS011;43531;52.152;6.366;2022-10-31T02:12:17;9.88;;;6.07;;
57697;SDS011;43531;52.152;6.366;2022-10-31T02:12:51;9.80;;;6.55;;
57697;SDS011;43531;52.152;6.366;2022-10-31T02:13:24;8.65;;;6.28;;
57697;SDS011;43531;52.152;6.366;2022-10-31T02:13:58;9.02;;;6.30;;
57697;SDS011;43531;52.152;6.366;2022-10-31T02:14:31;7.95;;;5.78;;
57697;SDS011;43531;52.152;6.366;2022-10-31T02:15:03;16.27;;;6.97;;
57697;SDS011;43531;52.152;6.366;2022-10-31T02:15:36;7.55;;;6.25;;
57697;SDS011;43531;52.152;6.366;2022-10-31T02:16:09;10.35;;;6.25;;
57697;SDS011;43531;52.152;6.366;2022-10-31T02:16:41;11.35;;;6.32;;
57697;SDS011;43531;52.152;6.366;2022-10-31T02:18:14;7.55;;;6.53;;
57697;SDS011;43531;52.152;6.366;2022-10-31T02:18:47;8.38;;;7.28;;
57697;SDS011;43531;52.152;6.366;2022-10-31T02:19:21;9.18;;;7.10;;
57697;SDS011;43531;52.152;6.366;2022-10-31T02:20:17;10.90;;;5.95;;
57697;SDS011;43531;52.152;6.366;2022-10-31T02:21:43;9.93;;;7.10;;
57697;SDS011;43531;52.152;6.366;2022-10-31T02:22:26;16.65;;;7.93;;
57697;SDS011;43531;52.152;6.366;2022-10-31T02:27:37;10.05;;;6.95;;
57697;SDS011;43531;52.152;6.366;2022-10-31T02:28:29;24.35;;;7.13;;
57697;SDS011;43531;52.152;6.366;2022-10-31T02:30:02;11.88;;;6.53;;
57697;SDS011;43531;52.152;6.366;2022-10-31T02:32:49;7.45;;;5.30;;
57697;SDS011;43531;52.152;6.366;2022-10-31T02:33:31;12.68;;;6.75;;
57697;SDS011;43531;52.152;6.366;2022-10-31T02:34:17;10.80;;;5.57;;
57697;SDS011;43531;52.152;6.366;2022-10-31T02:36:42;6.75;;;6.03;;
57697;SDS011;43531;52.152;6.366;2022-10-31T02:37:32;9.88;;;6.50;;
57697;SDS011;43531;52.152;6.366;2022-10-31T02:40:52;5.57;;;5.00;;
57697;SDS011;43531;52.152;6.366;2022-10-31T02:41:46;6.18;;;5.47;;
57697;SDS011;43531;52.152;6.366;2022-10-31T02:42:29;7.28;;;6.57;;
57697;SDS011;43531;52.152;6.366;2022-10-31T02:43:06;9.20;;;7.03;;
57697;SDS011;43531;52.152;6.366;2022-10-31T02:45:45;10.00;;;5.93;;
57697;SDS011;43531;52.152;6.366;2022-10-31T02:46:59;14.55;;;6.88;;
57697;SDS011;43531;52.152;6.366;2022-10-31T02:47:39;7.43;;;5.82;;
57697;SDS011;43531;52.152;6.366;2022-10-31T02:48:14;51.83;;;6.60;;
57697;SDS011;43531;52.152;6.366;2022-10-31T02:48:51;17.98;;;5.00;;
57697;SDS011;43531;52.152;6.366;2022-10-31T02:49:35;7.20;;;5.68;;
57697;SDS011;43531;52.152;6.366;2022-10-31T02:50:23;6.13;;;4.72;;
57697;SDS011;43531;52.152;6.366;2022-10-31T02:50:59;18.95;;;5.13;;
57697;SDS011;43531;52.152;6.366;2022-10-31T02:51:32;6.20;;;5.30;;
57697;SDS011;43531;52.152;6.366;2022-10-31T02:56:25;5.35;;;4.57;;
57697;SDS011;43531;52.152;6.366;2022-10-31T02:57:00;6.35;;;4.90;;
57697;SDS011;43531;52.152;6.366;2022-10-31T02:57:35;5.13;;;4.50;;
57697;SDS011;43531;52.152;6.366;2022-10-31T02:58:09;6.20;;;5.35;;
57697;SDS011;43531;52.152;6.366;2022-10-31T03:03:14;12.10;;;5.88;;
57697;SDS011;43531;52.152;6.366;2022-10-31T03:06:33;7.93;;;6.10;;
57697;SDS011;43531;52.152;6.366;2022-10-31T03:08:11;9.27;;;6.10;;
57697;SDS011;43531;52.152;6.366;2022-10-31T03:08:55;8.00;;;6.47;;
57697;SDS011;43531;52.152;6.366;2022-10-31T03:10:43;5.15;;;4.47;;
57697;SDS011;43531;52.152;6.366;2022-10-31T03:11:18;6.97;;;5.90;;
57697;SDS011;43531;52.152;6.366;2022-10-31T03:12:01;7.35;;;5.72;;
57697;SDS011;43531;52.152;6.366;2022-10-31T03:12:45;6.25;;;5.03;;
57697;SDS011;43531;52.152;6.366;2022-10-31T03:13:23;8.77;;;5.88;;
57697;SDS011;43531;52.152;6.366;2022-10-31T03:14:06;7.28;;;5.75;;
57697;SDS011;43531;52.152;6.366;2022-10-31T03:14:43;7.25;;;5.90;;
57697;SDS011;43531;52.152;6.366;2022-10-31T03:15:27;7.88;;;5.57;;
57697;SDS011;43531;52.152;6.366;2022-10-31T03:16:06;5.55;;;4.55;;
57697;SDS011;43531;52.152;6.366;2022-10-31T03:16:45;7.85;;;5.10;;
57697;SDS011;43531;52.152;6.366;2022-10-31T03:17:23;4.75;;;4.28;;
57697;SDS011;43531;52.152;6.366;2022-10-31T03:18:09;5.95;;;5.05;;
57697;SDS011;43531;52.152;6.366;2022-10-31T03:19:01;6.13;;;5.00;;
57697;SDS011;43531;52.152;6.366;2022-10-31T03:19:40;4.70;;;4.30;;
57697;SDS011;43531;52.152;6.366;2022-10-31T03:20:15;8.80;;;4.85;;
57697;SDS011;43531;52.152;6.366;2022-10-31T03:20:50;7.00;;;4.47;;
57697;SDS011;43531;52.152;6.366;2022-10-31T03:21:27;7.03;;;5.15;;
57697;SDS011;43531;52.152;6.366;2022-10-31T03:22:49;6.93;;;5.82;;
57697;SDS011;43531;52.152;6.366;2022-10-31T03:23:21;7.20;;;5.70;;
57697;SDS011;43531;52.152;6.366;2022-10-31T03:23:54;10.82;;;6.18;;
57697;SDS011;43531;52.152;6.366;2022-10-31T03:24:29;8.10;;;6.07;;
57697;SDS011;43531;52.152;6.366;2022-10-31T03:25:03;8.65;;;5.03;;
57697;SDS011;43531;52.152;6.366;2022-10-31T03:25:36;9.10;;;5.65;;
57697;SDS011;43531;52.152;6.366;2022-10-31T03:26:09;6.07;;;5.22;;
57697;SDS011;43531;52.152;6.366;2022-10-31T03:26:44;6.82;;;4.72;;
57697;SDS011;43531;52.152;6.366;2022-10-31T03:27:18;7.65;;;5.07;;
57697;SDS011;43531;52.152;6.366;2022-10-31T03:27:53;38.30;;;6.18;;
57697;SDS011;43531;52.152;6.366;2022-10-31T03:28:27;12.40;;;5.15;;
57697;SDS011;43531;52.152;6.366;2022-10-31T03:29:05;7.72;;;5.82;;
57697;SDS011;43531;52.152;6.366;2022-10-31T03:29:42;8.38;;;6.40;;
57697;SDS011;43531;52.152;6.366;2022-10-31T03:30:15;21.88;;;5.10;;
57697;SDS011;43531;52.152;6.366;2022-10-31T03:30:59;5.95;;;5.20;;
57697;SDS011;43531;52.152;6.366;2022-10-31T03:31:38;30.45;;;6.22;;
57697;SDS011;43531;52.152;6.366;2022-10-31T03:32:23;20.67;;;5.15;;
57697;SDS011;43531;52.152;6.366;2022-10-31T03:32:57;19.92;;;6.18;;
57697;SDS011;43531;52.152;6.366;2022-10-31T03:33:33;11.90;;;6.00;;
57697;SDS011;43531;52.152;6.366;2022-10-31T03:34:06;10.30;;;6.00;;
57697;SDS011;43531;52.152;6.366;2022-10-31T03:34:39;31.50;;;6.90;;
57697;SDS011;43531;52.152;6.366;2022-10-31T03:35:14;8.73;;;5.38;;
57697;SDS011;43531;52.152;6.366;2022-10-31T03:35:47;6.88;;;5.38;;
57697;SDS011;43531;52.152;6.366;2022-10-31T03:36:21;7.57;;;5.20;;
57697;SDS011;43531;52.152;6.366;2022-10-31T03:36:55;8.98;;;5.15;;
57697;SDS011;43531;52.152;6.366;2022-10-31T03:37:29;7.22;;;5.25;;
57697;SDS011;43531;52.152;6.366;2022-10-31T03:38:03;5.97;;;5.38;;
57697;SDS011;43531;52.152;6.366;2022-10-31T03:38:37;6.40;;;4.78;;
57697;SDS011;43531;52.152;6.366;2022-10-31T03:39:12;5.63;;;4.97;;
57697;SDS011;43531;52.152;6.366;2022-10-31T03:39:47;6.45;;;5.22;;
57697;SDS011;43531;52.152;6.366;2022-10-31T03:40:20;11.55;;;6.85;;
57697;SDS011;43531;52.152;6.366;2022-10-31T03:40:53;6.50;;;5.22;;
57697;SDS011;43531;52.152;6.366;2022-10-31T03:41:26;6.03;;;5.45;;
57697;SDS011;43531;52.152;6.366;2022-10-31T03:42:02;6.25;;;5.28;;
57697;SDS011;43531;52.152;6.366;2022-10-31T03:42:39;6.43;;;5.32;;
57697;SDS011;43531;52.152;6.366;2022-10-31T03:43:14;5.57;;;5.05;;
57697;SDS011;43531;52.152;6.366;2022-10-31T03:43:52;8.45;;;5.85;;
57697;SDS011;43531;52.152;6.366;2022-10-31T03:44:36;9.80;;;6.90;;
57697;SDS011;43531;52.152;6.366;2022-10-31T03:45:24;7.30;;;5.55;;
57697;SDS011;43531;52.152;6.366;2022-10-31T03:45:58;6.90;;;6.00;;
57697;SDS011;43531;52.152;6.366;2022-10-31T03:46:31;7.88;;;5.85;;
57697;SDS011;43531;52.152;6.366;2022-10-31T03:47:03;10.98;;;5.63;;
57697;SDS011;43531;52.152;6.366;2022-10-31T03:47:36;5.50;;;4.38;;
57697;SDS011;43531;52.152;6.366;2022-10-31T03:48:08;8.30;;;5.60;;
57697;SDS011;43531;52.152;6.366;2022-10-31T03:48:40;8.43;;;4.80;;
57697;SDS011;43531;52.152;6.366;2022-10-31T03:49:12;14.68;;;5.72;;
57697;SDS011;43531;52.152;6.366;2022-10-31T03:49:44;16.65;;;5.70;;
57697;SDS011;43531;52.152;6.366;2022-10-31T03:50:15;25.73;;;6.43;;
57697;SDS011;43531;52.152;6.366;2022-10-31T03:50:56;20.90;;;5.63;;
57697;SDS011;43531;52.152;6.366;2022-10-31T03:51:42;22.25;;;5.25;;
57697;SDS011;43531;52.152;6.366;2022-10-31T03:52:25;11.40;;;4.80;;
57697;SDS011;43531;52.152;6.366;2022-10-31T03:53:02;17.98;;;5.82;;
57697;SDS011;43531;52.152;6.366;2022-10-31T03:53:40;10.98;;;4.10;;
57697;SDS011;43531;52.152;6.366;2022-10-31T03:55:49;30.77;;;4.18;;
57697;SDS011;43531;52.152;6.366;2022-10-31T03:56:32;31.75;;;3.53;;
57697;SDS011;43531;52.152;6.366;2022-10-31T03:57:11;7.80;;;3.67;;
57697;SDS011;43531;52.152;6.366;2022-10-31T03:58:44;7.25;;;2.80;;
57697;SDS011;43531;52.152;6.366;2022-10-31T03:59:32;7.70;;;2.97;;
57697;SDS011;43531;52.152;6.366;2022-10-31T04:00:06;22.90;;;3.75;;
57697;SDS011;43531;52.152;6.366;2022-10-31T04:00:47;16.50;;;3.55;;
57697;SDS011;43531;52.152;6.366;2022-10-31T04:01:22;7.45;;;2.83;;
57697;SDS011;43531;52.152;6.366;2022-10-31T04:01:57;37.90;;;4.95;;
57697;SDS011;43531;52.152;6.366;2022-10-31T04:02:30;25.13;;;3.75;;
57697;SDS011;43531;52.152;6.366;2022-10-31T04:03:09;27.55;;;2.60;;
57697;SDS011;43531;52.152;6.366;2022-10-31T04:03:45;23.08;;;3.60;;
57697;SDS011;43531;52.152;6.366;2022-10-31T04:04:17;11.38;;;3.97;;
57697;SDS011;43531;52.152;6.366;2022-10-31T04:04:52;8.27;;;3.25;;
57697;SDS011;43531;52.152;6.366;2022-10-31T04:05:24;31.20;;;3.67;;
57697;SDS011;43531;52.152;6.366;2022-10-31T04:05:59;5.13;;;2.67;;
57697;SDS011;43531;52.152;6.366;2022-10-31T04:06:34;8.00;;;2.58;;
57697;SDS011;43531;52.152;6.366;2022-10-31T04:07:07;34.03;;;3.50;;
57697;SDS011;43531;52.152;6.366;2022-10-31T04:07:42;36.53;;;3.03;;
57697;SDS011;43531;52.152;6.366;2022-10-31T04:08:17;4.07;;;3.08;;
57697;SDS011;43531;52.152;6.366;2022-10-31T04:08:52;17.67;;;3.20;;
57697;SDS011;43531;52.152;6.366;2022-10-31T04:09:27;11.38;;;2.90;;
57697;SDS011;43531;52.152;6.366;2022-10-31T04:10:02;6.60;;;4.88;;
57697;SDS011;43531;52.152;6.366;2022-10-31T04:10:37;10.68;;;3.88;;
57697;SDS011;43531;52.152;6.366;2022-10-31T04:11:10;14.82;;;4.85;;
57697;SDS011;43531;52.152;6.366;2022-10-31T04:11:46;10.93;;;2.90;;
57697;SDS011;43531;52.152;6.366;2022-10-31T04:12:41;43.50;;;3.30;;
57697;SDS011;43531;52.152;6.366;2022-10-31T04:13:26;9.57;;;3.33;;
57697;SDS011;43531;52.152;6.366;2022-10-31T04:14:12;5.40;;;3.70;;
57697;SDS011;43531;52.152;6.366;2022-10-31T04:14:44;11.63;;;3.80;;
57697;SDS011;43531;52.152;6.366;2022-10-31T04:15:17;4.88;;;3.60;;
57697;SDS011;43531;52.152;6.366;2022-10-31T04:15:51;3.08;;;2.78;;
57697;SDS011;43531;52.152;6.366;2022-10-31T04:16:26;6.65;;;3.65;;
57697;SDS011;43531;52.152;6.366;2022-10-31T04:16:58;5.07;;;3.97;;
57697;SDS011;43531;52.152;6.366;2022-10-31T04:17:39;4.30;;;3.80;;
57697;SDS011;43531;52.152;6.366;2022-10-31T04:18:12;3.95;;;3.50;;
57697;SDS011;43531;52.152;6.366;2022-10-31T04:18:44;6.47;;;3.60;;
57697;SDS011;43531;52.152;6.366;2022-10-31T04:19:16;9.18;;;4.15;;
57697;SDS011;43531;52.152;6.366;2022-10-31T04:19:47;3.70;;;3.15;;
57697;SDS011;43531;52.152;6.366;2022-10-31T04:20:28;6.97;;;3.38;;
57697;SDS011;43531;52.152;6.366;2022-10-31T04:21:05;5.10;;;3.15;;